sensor_id;sensor_type;location;lat;lon;timestamp;P1;durP1;ratioP1;P2;durP2;ratioP2
63699;SDS011;49845;47.130;142.766;2022-11-18T00:01:07;34.75;;;16.63;;
63699;SDS011;49845;47.130;142.766;2022-11-18T00:04:09;41.60;;;18.67;;
63699;SDS011;49845;47.130;142.766;2022-11-18T00:06:44;36.58;;;17.70;;
63699;SDS011;49845;47.130;142.766;2022-11-18T00:09:33;38.80;;;17.80;;
63699;SDS011;49845;47.130;142.766;2022-11-18T00:12:18;36.47;;;16.75;;
63699;SDS011;49845;47.130;142.766;2022-11-18T00:15:23;38.17;;;17.05;;
63699;SDS011;49845;47.130;142.766;2022-11-18T00:17:59;39.00;;;17.85;;
63699;SDS011;49845;47.130;142.766;2022-11-18T00:23:49;39.30;;;18.33;;
63699;SDS011;49845;47.130;142.766;2022-11-18T00:26:25;40.25;;;18.45;;
63699;SDS011;49845;47.130;142.766;2022-11-18T00:29:23;39.85;;;17.25;;
63699;SDS011;49845;47.130;142.766;2022-11-18T00:32:13;35.42;;;17.90;;
63699;SDS011;49845;47.130;142.766;2022-11-18T00:35:04;32.13;;;17.33;;
63699;SDS011;49845;47.130;142.766;2022-11-18T00:37:51;41.58;;;18.60;;
63699;SDS011;49845;47.130;142.766;2022-11-18T00:40:47;42.08;;;19.33;;
63699;SDS011;49845;47.130;142.766;2022-11-18T00:43:40;37.35;;;18.00;;
63699;SDS011;49845;47.130;142.766;2022-11-18T00:46:18;38.45;;;18.60;;
63699;SDS011;49845;47.130;142.766;2022-11-18T00:48:56;37.67;;;17.83;;
63699;SDS011;49845;47.130;142.766;2022-11-18T00:51:33;36.00;;;17.35;;
63699;SDS011;49845;47.130;142.766;2022-11-18T00:54:15;37.83;;;19.17;;
63699;SDS011;49845;47.130;142.766;2022-11-18T00:56:59;38.17;;;19.95;;
63699;SDS011;49845;47.130;142.766;2022-11-18T00:59:47;40.22;;;18.67;;
63699;SDS011;49845;47.130;142.766;2022-11-18T01:02:39;39.13;;;20.23;;
63699;SDS011;49845;47.130;142.766;2022-11-18T01:05:43;39.63;;;19.92;;
63699;SDS011;49845;47.130;142.766;2022-11-18T01:08:29;44.90;;;20.00;;
63699;SDS011;49845;47.130;142.766;2022-11-18T01:11:23;50.35;;;19.95;;
63699;SDS011;49845;47.130;142.766;2022-11-18T01:14:27;46.25;;;20.92;;
63699;SDS011;49845;47.130;142.766;2022-11-18T01:21:09;49.85;;;23.02;;
63699;SDS011;49845;47.130;142.766;2022-11-18T01:24:37;47.60;;;22.02;;
63699;SDS011;49845;47.130;142.766;2022-11-18T01:31:18;40.22;;;20.70;;
63699;SDS011;49845;47.130;142.766;2022-11-18T01:34:01;40.22;;;20.25;;
63699;SDS011;49845;47.130;142.766;2022-11-18T01:36:52;54.05;;;23.33;;
63699;SDS011;49845;47.130;142.766;2022-11-18T01:39:43;40.58;;;20.33;;
63699;SDS011;49845;47.130;142.766;2022-11-18T01:42:46;36.00;;;19.85;;
63699;SDS011;49845;47.130;142.766;2022-11-18T01:52:12;33.78;;;17.38;;
63699;SDS011;49845;47.130;142.766;2022-11-18T01:55:29;28.90;;;14.75;;
63699;SDS011;49845;47.130;142.766;2022-11-18T01:58:17;20.25;;;12.00;;
63699;SDS011;49845;47.130;142.766;2022-11-18T02:01:15;26.38;;;15.25;;
63699;SDS011;49845;47.130;142.766;2022-11-18T02:04:15;28.48;;;16.05;;
63699;SDS011;49845;47.130;142.766;2022-11-18T02:07:26;34.90;;;18.15;;
63699;SDS011;49845;47.130;142.766;2022-11-18T02:10:18;37.63;;;20.30;;
63699;SDS011;49845;47.130;142.766;2022-11-18T02:14:13;40.90;;;21.88;;
63699;SDS011;49845;47.130;142.766;2022-11-18T02:17:13;49.42;;;23.05;;
63699;SDS011;49845;47.130;142.766;2022-11-18T02:24:25;36.97;;;18.38;;
63699;SDS011;49845;47.130;142.766;2022-11-18T02:31:56;34.25;;;17.75;;
63699;SDS011;49845;47.130;142.766;2022-11-18T02:35:57;33.50;;;17.88;;
63699;SDS011;49845;47.130;142.766;2022-11-18T02:39:08;34.05;;;16.70;;
63699;SDS011;49845;47.130;142.766;2022-11-18T02:42:38;34.47;;;16.85;;
63699;SDS011;49845;47.130;142.766;2022-11-18T02:45:24;42.95;;;17.58;;
63699;SDS011;49845;47.130;142.766;2022-11-18T02:49:06;35.00;;;18.67;;
63699;SDS011;49845;47.130;142.766;2022-11-18T02:52:17;33.95;;;18.27;;
63699;SDS011;49845;47.130;142.766;2022-11-18T02:55:02;38.47;;;18.75;;
63699;SDS011;49845;47.130;142.766;2022-11-18T02:57:49;40.15;;;19.38;;
63699;SDS011;49845;47.130;142.766;2022-11-18T03:00:37;35.90;;;17.88;;
63699;SDS011;49845;47.130;142.766;2022-11-18T03:03:35;36.75;;;18.58;;
63699;SDS011;49845;47.130;142.766;2022-11-18T03:06:26;33.97;;;17.05;;
63699;SDS011;49845;47.130;142.766;2022-11-18T03:09:30;31.42;;;15.68;;
63699;SDS011;49845;47.130;142.766;2022-11-18T03:12:27;37.33;;;16.73;;
63699;SDS011;49845;47.130;142.766;2022-11-18T03:15:35;32.03;;;15.82;;
63699;SDS011;49845;47.130;142.766;2022-11-18T03:18:35;37.88;;;17.13;;
63699;SDS011;49845;47.130;142.766;2022-11-18T03:21:42;33.10;;;17.25;;
63699;SDS011;49845;47.130;142.766;2022-11-18T03:24:36;38.15;;;19.40;;
63699;SDS011;49845;47.130;142.766;2022-11-18T03:27:20;48.00;;;20.30;;
63699;SDS011;49845;47.130;142.766;2022-11-18T03:33:16;37.83;;;19.70;;
63699;SDS011;49845;47.130;142.766;2022-11-18T03:36:07;45.42;;;20.63;;
63699;SDS011;49845;47.130;142.766;2022-11-18T03:38:58;40.95;;;20.70;;
63699;SDS011;49845;47.130;142.766;2022-11-18T03:41:53;39.80;;;20.95;;
63699;SDS011;49845;47.130;142.766;2022-11-18T03:45:06;42.85;;;21.42;;
63699;SDS011;49845;47.130;142.766;2022-11-18T03:48:26;42.80;;;20.05;;
63699;SDS011;49845;47.130;142.766;2022-11-18T03:51:40;42.25;;;20.65;;
63699;SDS011;49845;47.130;142.766;2022-11-18T03:55:03;40.40;;;19.38;;
63699;SDS011;49845;47.130;142.766;2022-11-18T03:58:06;50.10;;;18.70;;
63699;SDS011;49845;47.130;142.766;2022-11-18T04:01:14;41.05;;;19.05;;
63699;SDS011;49845;47.130;142.766;2022-11-18T04:07:17;44.25;;;18.67;;
63699;SDS011;49845;47.130;142.766;2022-11-18T04:13:46;41.08;;;19.38;;
63699;SDS011;49845;47.130;142.766;2022-11-18T04:16:41;40.20;;;18.58;;
63699;SDS011;49845;47.130;142.766;2022-11-18T04:19:40;31.50;;;17.27;;
63699;SDS011;49845;47.130;142.766;2022-11-18T04:22:45;36.00;;;17.27;;
63699;SDS011;49845;47.130;142.766;2022-11-18T04:25:50;39.22;;;17.17;;
63699;SDS011;49845;47.130;142.766;2022-11-18T04:28:40;31.83;;;16.13;;
63699;SDS011;49845;47.130;142.766;2022-11-18T04:31:39;41.28;;;17.02;;
63699;SDS011;49845;47.130;142.766;2022-11-18T04:34:24;36.33;;;16.50;;
63699;SDS011;49845;47.130;142.766;2022-11-18T04:37:22;36.40;;;17.38;;
63699;SDS011;49845;47.130;142.766;2022-11-18T04:40:11;30.90;;;16.05;;
63699;SDS011;49845;47.130;142.766;2022-11-18T04:46:54;29.10;;;15.13;;
63699;SDS011;49845;47.130;142.766;2022-11-18T04:50:24;28.05;;;14.98;;
63699;SDS011;49845;47.130;142.766;2022-11-18T04:57:14;30.75;;;14.77;;
63699;SDS011;49845;47.130;142.766;2022-11-18T04:59:59;30.83;;;15.23;;
63699;SDS011;49845;47.130;142.766;2022-11-18T05:03:18;32.88;;;14.90;;
63699;SDS011;49845;47.130;142.766;2022-11-18T05:06:31;30.25;;;13.63;;
63699;SDS011;49845;47.130;142.766;2022-11-18T05:09:13;24.85;;;14.38;;
63699;SDS011;49845;47.130;142.766;2022-11-18T05:12:00;27.02;;;13.50;;
63699;SDS011;49845;47.130;142.766;2022-11-18T05:14:53;32.95;;;14.13;;
63699;SDS011;49845;47.130;142.766;2022-11-18T05:20:50;25.17;;;12.95;;
63699;SDS011;49845;47.130;142.766;2022-11-18T05:23:40;24.90;;;13.48;;
63699;SDS011;49845;47.130;142.766;2022-11-18T05:26:28;25.40;;;13.25;;
63699;SDS011;49845;47.130;142.766;2022-11-18T05:30:07;26.33;;;13.37;;
63699;SDS011;49845;47.130;142.766;2022-11-18T05:32:55;29.23;;;13.38;;
63699;SDS011;49845;47.130;142.766;2022-11-18T05:35:35;31.73;;;14.27;;
63699;SDS011;49845;47.130;142.766;2022-11-18T05:38:20;30.85;;;14.25;;
63699;SDS011;49845;47.130;142.766;2022-11-18T05:41:09;27.60;;;13.38;;
63699;SDS011;49845;47.130;142.766;2022-11-18T05:43:57;30.60;;;13.30;;
63699;SDS011;49845;47.130;142.766;2022-11-18T05:49:42;26.42;;;11.93;;
63699;SDS011;49845;47.130;142.766;2022-11-18T05:52:29;19.42;;;10.57;;
63699;SDS011;49845;47.130;142.766;2022-11-18T05:55:13;20.13;;;10.63;;
63699;SDS011;49845;47.130;142.766;2022-11-18T05:58:04;17.42;;;10.75;;
63699;SDS011;49845;47.130;142.766;2022-11-18T06:01:01;17.83;;;9.40;;
63699;SDS011;49845;47.130;142.766;2022-11-18T06:03:46;17.95;;;9.80;;
63699;SDS011;49845;47.130;142.766;2022-11-18T06:06:27;15.60;;;9.02;;
63699;SDS011;49845;47.130;142.766;2022-11-18T06:09:09;14.95;;;8.60;;
63699;SDS011;49845;47.130;142.766;2022-11-18T06:11:54;16.15;;;9.52;;
63699;SDS011;49845;47.130;142.766;2022-11-18T06:14:41;15.38;;;8.88;;
63699;SDS011;49845;47.130;142.766;2022-11-18T06:17:39;13.57;;;8.77;;
63699;SDS011;49845;47.130;142.766;2022-11-18T06:20:40;15.90;;;8.05;;
63699;SDS011;49845;47.130;142.766;2022-11-18T06:23:42;16.10;;;8.55;;
63699;SDS011;49845;47.130;142.766;2022-11-18T06:26:34;12.85;;;7.90;;
63699;SDS011;49845;47.130;142.766;2022-11-18T06:29:31;17.25;;;7.70;;
63699;SDS011;49845;47.130;142.766;2022-11-18T06:32:33;16.10;;;9.55;;
63699;SDS011;49845;47.130;142.766;2022-11-18T06:35:19;16.42;;;9.80;;
63699;SDS011;49845;47.130;142.766;2022-11-18T06:38:04;19.40;;;10.98;;
63699;SDS011;49845;47.130;142.766;2022-11-18T06:40:49;21.40;;;11.23;;
63699;SDS011;49845;47.130;142.766;2022-11-18T06:43:30;20.83;;;11.48;;
63699;SDS011;49845;47.130;142.766;2022-11-18T06:46:28;20.67;;;12.25;;
63699;SDS011;49845;47.130;142.766;2022-11-18T06:49:29;23.80;;;12.77;;
63699;SDS011;49845;47.130;142.766;2022-11-18T06:52:20;18.20;;;10.18;;
63699;SDS011;49845;47.130;142.766;2022-11-18T06:55:21;20.33;;;11.02;;
63699;SDS011;49845;47.130;142.766;2022-11-18T06:58:46;18.60;;;10.02;;
63699;SDS011;49845;47.130;142.766;2022-11-18T07:01:43;23.20;;;10.45;;
63699;SDS011;49845;47.130;142.766;2022-11-18T07:05:04;20.08;;;10.98;;
63699;SDS011;49845;47.130;142.766;2022-11-18T07:07:55;46.63;;;20.55;;
63699;SDS011;49845;47.130;142.766;2022-11-18T07:17:08;56.85;;;25.25;;
63699;SDS011;49845;47.130;142.766;2022-11-18T07:19:49;74.55;;;32.00;;
63699;SDS011;49845;47.130;142.766;2022-11-18T07:22:51;87.10;;;34.53;;
63699;SDS011;49845;47.130;142.766;2022-11-18T07:25:39;90.68;;;31.27;;
63699;SDS011;49845;47.130;142.766;2022-11-18T07:28:33;76.28;;;27.58;;
63699;SDS011;49845;47.130;142.766;2022-11-18T07:34:52;36.05;;;13.98;;
63699;SDS011;49845;47.130;142.766;2022-11-18T07:38:37;28.65;;;14.70;;
63699;SDS011;49845;47.130;142.766;2022-11-18T07:45:46;28.98;;;14.00;;
63699;SDS011;49845;47.130;142.766;2022-11-18T07:49:09;33.25;;;13.88;;
63699;SDS011;49845;47.130;142.766;2022-11-18T07:52:18;152.35;;;42.78;;
63699;SDS011;49845;47.130;142.766;2022-11-18T07:54:59;84.43;;;27.67;;
63699;SDS011;49845;47.130;142.766;2022-11-18T07:58:06;60.92;;;21.33;;
63699;SDS011;49845;47.130;142.766;2022-11-18T08:01:02;82.35;;;29.15;;
63699;SDS011;49845;47.130;142.766;2022-11-18T08:03:46;57.55;;;23.67;;
63699;SDS011;49845;47.130;142.766;2022-11-18T08:10:12;119.43;;;44.10;;
63699;SDS011;49845;47.130;142.766;2022-11-18T08:13:08;43.55;;;19.55;;
63699;SDS011;49845;47.130;142.766;2022-11-18T08:15:53;38.65;;;16.60;;
63699;SDS011;49845;47.130;142.766;2022-11-18T08:18:47;32.13;;;15.20;;
63699;SDS011;49845;47.130;142.766;2022-11-18T08:21:30;27.48;;;14.20;;
63699;SDS011;49845;47.130;142.766;2022-11-18T08:24:08;25.50;;;13.40;;
63699;SDS011;49845;47.130;142.766;2022-11-18T08:27:06;27.10;;;14.43;;
63699;SDS011;49845;47.130;142.766;2022-11-18T08:29:52;24.70;;;12.90;;
63699;SDS011;49845;47.130;142.766;2022-11-18T08:32:46;32.15;;;16.52;;
63699;SDS011;49845;47.130;142.766;2022-11-18T08:35:36;54.95;;;23.65;;
63699;SDS011;49845;47.130;142.766;2022-11-18T08:38:20;74.80;;;32.50;;
63699;SDS011;49845;47.130;142.766;2022-11-18T08:41:04;72.85;;;29.10;;
63699;SDS011;49845;47.130;142.766;2022-11-18T08:43:46;60.65;;;28.20;;
63699;SDS011;49845;47.130;142.766;2022-11-18T08:46:31;33.17;;;15.05;;
63699;SDS011;49845;47.130;142.766;2022-11-18T08:49:16;22.92;;;11.77;;
63699;SDS011;49845;47.130;142.766;2022-11-18T08:52:14;16.55;;;9.05;;
63699;SDS011;49845;47.130;142.766;2022-11-18T08:54:55;15.00;;;8.55;;
63699;SDS011;49845;47.130;142.766;2022-11-18T08:57:39;16.27;;;9.50;;
63699;SDS011;49845;47.130;142.766;2022-11-18T09:00:43;15.93;;;9.13;;
63699;SDS011;49845;47.130;142.766;2022-11-18T09:03:24;11.98;;;7.68;;
63699;SDS011;49845;47.130;142.766;2022-11-18T09:06:13;15.07;;;8.40;;
63699;SDS011;49845;47.130;142.766;2022-11-18T09:08:59;15.02;;;7.68;;
63699;SDS011;49845;47.130;142.766;2022-11-18T09:11:52;13.18;;;7.97;;
63699;SDS011;49845;47.130;142.766;2022-11-18T09:14:31;14.90;;;8.60;;
63699;SDS011;49845;47.130;142.766;2022-11-18T09:17:35;15.77;;;8.57;;
63699;SDS011;49845;47.130;142.766;2022-11-18T09:20:29;13.55;;;8.73;;
63699;SDS011;49845;47.130;142.766;2022-11-18T09:23:17;15.43;;;9.05;;
63699;SDS011;49845;47.130;142.766;2022-11-18T09:26:35;13.68;;;8.23;;
63699;SDS011;49845;47.130;142.766;2022-11-18T09:29:25;36.60;;;18.48;;
63699;SDS011;49845;47.130;142.766;2022-11-18T09:32:46;31.02;;;17.90;;
63699;SDS011;49845;47.130;142.766;2022-11-18T09:36:17;105.78;;;45.78;;
63699;SDS011;49845;47.130;142.766;2022-11-18T09:39:16;96.20;;;47.50;;
63699;SDS011;49845;47.130;142.766;2022-11-18T09:45:06;62.67;;;36.03;;
63699;SDS011;49845;47.130;142.766;2022-11-18T09:47:55;34.90;;;23.73;;
63699;SDS011;49845;47.130;142.766;2022-11-18T09:50:36;25.30;;;15.80;;
63699;SDS011;49845;47.130;142.766;2022-11-18T09:53:44;27.35;;;18.27;;
63699;SDS011;49845;47.130;142.766;2022-11-18T09:56:53;34.22;;;16.98;;
63699;SDS011;49845;47.130;142.766;2022-11-18T10:00:04;36.33;;;16.67;;
63699;SDS011;49845;47.130;142.766;2022-11-18T10:02:56;23.90;;;14.18;;
63699;SDS011;49845;47.130;142.766;2022-11-18T10:05:43;16.25;;;9.55;;
63699;SDS011;49845;47.130;142.766;2022-11-18T10:09:02;40.65;;;17.15;;
63699;SDS011;49845;47.130;142.766;2022-11-18T10:12:15;369.20;;;103.10;;
63699;SDS011;49845;47.130;142.766;2022-11-18T10:15:10;219.77;;;66.18;;
63699;SDS011;49845;47.130;142.766;2022-11-18T10:18:12;187.40;;;58.42;;
63699;SDS011;49845;47.130;142.766;2022-11-18T10:21:31;128.98;;;40.50;;
63699;SDS011;49845;47.130;142.766;2022-11-18T10:24:29;123.93;;;40.55;;
63699;SDS011;49845;47.130;142.766;2022-11-18T10:27:11;71.53;;;28.88;;
63699;SDS011;49845;47.130;142.766;2022-11-18T10:29:56;49.40;;;19.45;;
63699;SDS011;49845;47.130;142.766;2022-11-18T10:42:02;27.33;;;15.52;;
63699;SDS011;49845;47.130;142.766;2022-11-18T10:44:42;21.15;;;12.10;;
63699;SDS011;49845;47.130;142.766;2022-11-18T10:47:29;37.20;;;16.10;;
63699;SDS011;49845;47.130;142.766;2022-11-18T10:50:48;20.58;;;9.93;;
63699;SDS011;49845;47.130;142.766;2022-11-18T10:53:37;20.08;;;9.40;;
63699;SDS011;49845;47.130;142.766;2022-11-18T10:56:28;11.30;;;6.80;;
63699;SDS011;49845;47.130;142.766;2022-11-18T10:59:48;15.65;;;8.20;;
63699;SDS011;49845;47.130;142.766;2022-11-18T11:02:52;22.73;;;9.57;;
63699;SDS011;49845;47.130;142.766;2022-11-18T11:05:40;42.38;;;16.42;;
63699;SDS011;49845;47.130;142.766;2022-11-18T11:08:24;63.70;;;23.67;;
63699;SDS011;49845;47.130;142.766;2022-11-18T11:11:20;55.40;;;22.40;;
63699;SDS011;49845;47.130;142.766;2022-11-18T11:14:18;27.88;;;12.05;;
63699;SDS011;49845;47.130;142.766;2022-11-18T11:17:02;13.60;;;7.63;;
63699;SDS011;49845;47.130;142.766;2022-11-18T11:20:00;104.93;;;38.33;;
63699;SDS011;49845;47.130;142.766;2022-11-18T11:22:56;168.98;;;59.85;;
63699;SDS011;49845;47.130;142.766;2022-11-18T11:25:54;166.15;;;59.45;;
63699;SDS011;49845;47.130;142.766;2022-11-18T11:29:24;84.90;;;31.30;;
63699;SDS011;49845;47.130;142.766;2022-11-18T11:32:52;170.00;;;64.25;;
63699;SDS011;49845;47.130;142.766;2022-11-18T11:36:11;83.97;;;38.08;;
63699;SDS011;49845;47.130;142.766;2022-11-18T11:42:32;44.38;;;19.15;;
63699;SDS011;49845;47.130;142.766;2022-11-18T11:49:34;52.55;;;17.77;;
63699;SDS011;49845;47.130;142.766;2022-11-18T11:56:26;25.48;;;11.20;;
63699;SDS011;49845;47.130;142.766;2022-11-18T11:59:30;44.90;;;16.40;;
63699;SDS011;49845;47.130;142.766;2022-11-18T12:05:58;57.20;;;18.83;;
63699;SDS011;49845;47.130;142.766;2022-11-18T12:08:46;50.53;;;18.95;;
63699;SDS011;49845;47.130;142.766;2022-11-18T12:11:45;34.83;;;14.60;;
63699;SDS011;49845;47.130;142.766;2022-11-18T12:14:39;23.17;;;10.68;;
63699;SDS011;49845;47.130;142.766;2022-11-18T12:17:42;23.08;;;10.18;;
63699;SDS011;49845;47.130;142.766;2022-11-18T12:20:35;66.55;;;23.23;;
63699;SDS011;49845;47.130;142.766;2022-11-18T12:23:25;86.88;;;26.60;;
63699;SDS011;49845;47.130;142.766;2022-11-18T12:26:10;49.92;;;17.10;;
63699;SDS011;49845;47.130;142.766;2022-11-18T12:29:34;40.53;;;14.77;;
63699;SDS011;49845;47.130;142.766;2022-11-18T12:32:30;52.22;;;16.00;;
63699;SDS011;49845;47.130;142.766;2022-11-18T12:35:36;61.28;;;18.08;;
63699;SDS011;49845;47.130;142.766;2022-11-18T12:38:26;64.30;;;18.60;;
63699;SDS011;49845;47.130;142.766;2022-11-18T12:44:55;44.95;;;15.27;;
63699;SDS011;49845;47.130;142.766;2022-11-18T12:48:37;32.38;;;11.38;;
63699;SDS011;49845;47.130;142.766;2022-11-18T12:54:43;29.10;;;12.93;;
63699;SDS011;49845;47.130;142.766;2022-11-18T12:57:34;17.77;;;9.05;;
63699;SDS011;49845;47.130;142.766;2022-11-18T13:00:47;15.65;;;8.45;;
63699;SDS011;49845;47.130;142.766;2022-11-18T13:04:10;20.83;;;10.93;;
63699;SDS011;49845;47.130;142.766;2022-11-18T13:07:22;27.15;;;12.15;;
63699;SDS011;49845;47.130;142.766;2022-11-18T13:10:25;39.92;;;17.27;;
63699;SDS011;49845;47.130;142.766;2022-11-18T13:13:12;40.72;;;17.15;;
63699;SDS011;49845;47.130;142.766;2022-11-18T13:16:17;42.05;;;17.60;;
63699;SDS011;49845;47.130;142.766;2022-11-18T13:19:20;40.58;;;18.08;;
63699;SDS011;49845;47.130;142.766;2022-11-18T13:22:16;41.45;;;19.00;;
63699;SDS011;49845;47.130;142.766;2022-11-18T13:25:23;89.15;;;33.13;;
63699;SDS011;49845;47.130;142.766;2022-11-18T13:28:27;89.43;;;32.05;;
63699;SDS011;49845;47.130;142.766;2022-11-18T13:31:23;277.52;;;81.10;;
63699;SDS011;49845;47.130;142.766;2022-11-18T13:34:16;161.80;;;49.15;;
63699;SDS011;49845;47.130;142.766;2022-11-18T13:36:59;355.38;;;106.45;;
63699;SDS011;49845;47.130;142.766;2022-11-18T13:39:51;225.40;;;69.05;;
63699;SDS011;49845;47.130;142.766;2022-11-18T13:42:31;157.63;;;52.80;;
63699;SDS011;49845;47.130;142.766;2022-11-18T13:45:29;174.25;;;55.00;;
63699;SDS011;49845;47.130;142.766;2022-11-18T13:51:35;19.77;;;10.15;;
63699;SDS011;49845;47.130;142.766;2022-11-18T13:54:14;19.65;;;9.98;;
63699;SDS011;49845;47.130;142.766;2022-11-18T13:57:03;57.63;;;20.55;;
63699;SDS011;49845;47.130;142.766;2022-11-18T13:59:57;210.02;;;68.00;;
63699;SDS011;49845;47.130;142.766;2022-11-18T14:02:58;212.35;;;70.18;;
63699;SDS011;49845;47.130;142.766;2022-11-18T14:05:56;244.48;;;85.50;;
63699;SDS011;49845;47.130;142.766;2022-11-18T14:08:38;169.85;;;61.63;;
63699;SDS011;49845;47.130;142.766;2022-11-18T14:11:33;101.80;;;38.67;;
63699;SDS011;49845;47.130;142.766;2022-11-18T14:14:30;117.40;;;45.03;;
63699;SDS011;49845;47.130;142.766;2022-11-18T14:17:28;57.88;;;23.50;;
63699;SDS011;49845;47.130;142.766;2022-11-18T14:20:34;19.20;;;9.70;;
63699;SDS011;49845;47.130;142.766;2022-11-18T14:23:23;14.98;;;8.02;;
63699;SDS011;49845;47.130;142.766;2022-11-18T14:26:13;14.13;;;7.90;;
63699;SDS011;49845;47.130;142.766;2022-11-18T14:29:13;25.45;;;11.10;;
63699;SDS011;49845;47.130;142.766;2022-11-18T14:34:59;36.63;;;13.68;;
63699;SDS011;49845;47.130;142.766;2022-11-18T14:37:37;43.42;;;16.02;;
63699;SDS011;49845;47.130;142.766;2022-11-18T14:40:42;61.65;;;20.98;;
63699;SDS011;49845;47.130;142.766;2022-11-18T14:43:21;332.77;;;63.40;;
63699;SDS011;49845;47.130;142.766;2022-11-18T14:46:04;237.57;;;47.50;;
63699;SDS011;49845;47.130;142.766;2022-11-18T14:48:51;164.52;;;41.30;;
63699;SDS011;49845;47.130;142.766;2022-11-18T14:51:37;104.60;;;33.35;;
63699;SDS011;49845;47.130;142.766;2022-11-18T14:54:16;100.28;;;32.53;;
63699;SDS011;49845;47.130;142.766;2022-11-18T14:57:01;123.63;;;41.78;;
63699;SDS011;49845;47.130;142.766;2022-11-18T14:59:42;224.00;;;58.92;;
63699;SDS011;49845;47.130;142.766;2022-11-18T15:02:27;285.77;;;75.40;;
63699;SDS011;49845;47.130;142.766;2022-11-18T15:05:22;77.32;;;26.92;;
63699;SDS011;49845;47.130;142.766;2022-11-18T15:07:57;54.92;;;23.10;;
63699;SDS011;49845;47.130;142.766;2022-11-18T15:10:34;39.92;;;17.38;;
63699;SDS011;49845;47.130;142.766;2022-11-18T15:13:24;23.10;;;10.35;;
63699;SDS011;49845;47.130;142.766;2022-11-18T15:16:12;16.27;;;8.48;;
63699;SDS011;49845;47.130;142.766;2022-11-18T15:18:58;18.77;;;7.78;;
63699;SDS011;49845;47.130;142.766;2022-11-18T15:21:57;12.35;;;6.70;;
63699;SDS011;49845;47.130;142.766;2022-11-18T15:24:43;14.43;;;7.75;;
63699;SDS011;49845;47.130;142.766;2022-11-18T15:27:41;11.88;;;6.75;;
63699;SDS011;49845;47.130;142.766;2022-11-18T15:37:39;12.63;;;7.35;;
63699;SDS011;49845;47.130;142.766;2022-11-18T15:40:31;10.52;;;6.68;;
63699;SDS011;49845;47.130;142.766;2022-11-18T15:43:22;12.55;;;7.35;;
63699;SDS011;49845;47.130;142.766;2022-11-18T15:46:42;11.35;;;6.20;;
63699;SDS011;49845;47.130;142.766;2022-11-18T15:49:28;11.77;;;6.88;;
63699;SDS011;49845;47.130;142.766;2022-11-18T15:52:13;12.20;;;7.47;;
63699;SDS011;49845;47.130;142.766;2022-11-18T15:55:09;14.60;;;7.65;;
63699;SDS011;49845;47.130;142.766;2022-11-18T15:57:59;15.07;;;7.93;;
63699;SDS011;49845;47.130;142.766;2022-11-18T16:00:43;17.85;;;8.00;;
63699;SDS011;49845;47.130;142.766;2022-11-18T16:03:29;13.82;;;7.03;;
63699;SDS011;49845;47.130;142.766;2022-11-18T16:06:13;15.30;;;8.73;;
63699;SDS011;49845;47.130;142.766;2022-11-18T16:09:00;14.50;;;7.60;;
63699;SDS011;49845;47.130;142.766;2022-11-18T16:11:47;13.80;;;7.15;;
63699;SDS011;49845;47.130;142.766;2022-11-18T16:14:40;30.95;;;10.63;;
63699;SDS011;49845;47.130;142.766;2022-11-18T16:17:49;17.67;;;9.52;;
63699;SDS011;49845;47.130;142.766;2022-11-18T16:20:48;17.38;;;8.52;;
63699;SDS011;49845;47.130;142.766;2022-11-18T16:23:35;15.27;;;8.02;;
63699;SDS011;49845;47.130;142.766;2022-11-18T16:26:17;16.98;;;8.32;;
63699;SDS011;49845;47.130;142.766;2022-11-18T16:28:59;18.48;;;9.63;;
63699;SDS011;49845;47.130;142.766;2022-11-18T16:31:45;14.13;;;8.52;;
63699;SDS011;49845;47.130;142.766;2022-11-18T16:34:36;12.43;;;7.45;;
63699;SDS011;49845;47.130;142.766;2022-11-18T16:40:46;14.40;;;7.15;;
63699;SDS011;49845;47.130;142.766;2022-11-18T16:44:07;16.02;;;8.43;;
63699;SDS011;49845;47.130;142.766;2022-11-18T16:46:57;18.30;;;7.88;;
63699;SDS011;49845;47.130;142.766;2022-11-18T16:49:46;12.07;;;6.50;;
63699;SDS011;49845;47.130;142.766;2022-11-18T16:52:41;11.23;;;6.65;;
63699;SDS011;49845;47.130;142.766;2022-11-18T16:55:33;10.95;;;6.22;;
63699;SDS011;49845;47.130;142.766;2022-11-18T16:58:28;10.00;;;6.00;;
63699;SDS011;49845;47.130;142.766;2022-11-18T17:01:18;10.50;;;6.63;;
63699;SDS011;49845;47.130;142.766;2022-11-18T17:04:02;12.77;;;7.28;;
63699;SDS011;49845;47.130;142.766;2022-11-18T17:06:45;12.27;;;6.63;;
63699;SDS011;49845;47.130;142.766;2022-11-18T17:09:36;11.00;;;6.43;;
63699;SDS011;49845;47.130;142.766;2022-11-18T17:15:12;18.27;;;8.73;;
63699;SDS011;49845;47.130;142.766;2022-11-18T17:18:02;12.27;;;7.30;;
63699;SDS011;49845;47.130;142.766;2022-11-18T17:20:42;23.45;;;10.90;;
63699;SDS011;49845;47.130;142.766;2022-11-18T17:23:21;27.45;;;11.02;;
63699;SDS011;49845;47.130;142.766;2022-11-18T17:26:12;24.83;;;9.88;;
63699;SDS011;49845;47.130;142.766;2022-11-18T17:29:16;16.30;;;7.80;;
63699;SDS011;49845;47.130;142.766;2022-11-18T17:32:11;15.02;;;7.45;;
63699;SDS011;49845;47.130;142.766;2022-11-18T17:34:54;15.75;;;8.18;;
63699;SDS011;49845;47.130;142.766;2022-11-18T17:37:46;14.10;;;7.90;;
63699;SDS011;49845;47.130;142.766;2022-11-18T17:40:32;13.80;;;7.32;;
63699;SDS011;49845;47.130;142.766;2022-11-18T17:43:19;11.52;;;6.55;;
63699;SDS011;49845;47.130;142.766;2022-11-18T17:46:24;14.98;;;8.05;;
63699;SDS011;49845;47.130;142.766;2022-11-18T17:49:14;11.38;;;5.68;;
63699;SDS011;49845;47.130;142.766;2022-11-18T17:52:16;10.38;;;5.72;;
63699;SDS011;49845;47.130;142.766;2022-11-18T17:55:20;21.48;;;10.82;;
63699;SDS011;49845;47.130;142.766;2022-11-18T17:58:33;21.33;;;9.25;;
63699;SDS011;49845;47.130;142.766;2022-11-18T18:01:17;18.38;;;8.85;;
63699;SDS011;49845;47.130;142.766;2022-11-18T18:04:05;17.65;;;9.23;;
63699;SDS011;49845;47.130;142.766;2022-11-18T18:06:50;18.15;;;9.05;;
63699;SDS011;49845;47.130;142.766;2022-11-18T18:09:38;15.25;;;8.32;;
63699;SDS011;49845;47.130;142.766;2022-11-18T18:12:15;16.63;;;8.30;;
63699;SDS011;49845;47.130;142.766;2022-11-18T18:15:12;11.63;;;6.43;;
63699;SDS011;49845;47.130;142.766;2022-11-18T18:20:59;12.13;;;6.88;;
63699;SDS011;49845;47.130;142.766;2022-11-18T18:23:39;10.77;;;6.25;;
63699;SDS011;49845;47.130;142.766;2022-11-18T18:26:31;11.87;;;6.37;;
63699;SDS011;49845;47.130;142.766;2022-11-18T18:29:10;11.27;;;6.38;;
63699;SDS011;49845;47.130;142.766;2022-11-18T18:31:50;12.95;;;6.65;;
63699;SDS011;49845;47.130;142.766;2022-11-18T18:34:49;15.05;;;7.65;;
63699;SDS011;49845;47.130;142.766;2022-11-18T18:38:11;13.90;;;7.45;;
63699;SDS011;49845;47.130;142.766;2022-11-18T18:41:17;8.98;;;5.93;;